Flight Track Log - Related Links

Times and Time Zones

All times are in EDT time to prevent confusion due to time zone crossing. See the N498QS flight status page for this flight to view local times or setup timezone preferences in your user account.

Time Position Orientation Groundspeed Altitude Reporting Facility
EDT Latitude Longitude Course Direction KTS MPH feet Rate Location/Type
Sat 11:37:20 AM 38.9833 -77.5167 90° East 216 249 2,600  Level Potomac TRACON
Sat 11:38:20 AM 39.0500 -77.5167 360° North 270 311 6,100 3,174 Climbing Potomac TRACON
Sat 11:39:21 AM 39.1167 -77.5000 11° North 290 334 9,000 1,513 Climbing Potomac TRACON
Sat 11:40:15 AM 39.1667 -77.4333 46° Northeast 313 360 9,000 263 Level Potomac TRACON
Sat 11:41:15 AM 39.2167 -77.3333 57° Northeast 314 361 9,500 549 Climbing Potomac TRACON
Sat 11:42:00 AM 39.3000 -76.9279 90° East  Level FlightAware Approximate
Sat 11:42:59 AM 39.2867 -77.1550 63° Northeast 360 414 10,500  Level Washington Center
Sat 11:43:59 AM 39.3239 -77.0269 69° East 371 427 11,500 1,650 Climbing Washington Center
Sat 11:44:59 AM 39.2942 -76.8894 106° East 371 427 13,800 2,450 Climbing Washington Center
Sat 11:45:59 AM 39.2517 -76.7494 111° Southeast 386 444 16,400 2,600 Climbing Washington Center
Sat 11:46:59 AM 39.2092 -76.6067 111° Southeast 408 470 19,000 2,300 Climbing Washington Center
Sat 11:47:59 AM 39.1625 -76.4589 112° Southeast 428 493 21,000 1,950 Climbing Washington Center
Sat 11:48:59 AM 39.1156 -76.3033 111° Southeast 445 512 22,900 1,000 Climbing Washington Center
Sat 11:49:59 AM 39.0644 -76.1236 110° East 471 542 23,000 50 Climbing Washington Center
Sat 11:50:59 AM 39.0483 -75.9525 97° East 484 557 23,000  Level Washington Center
Sat 11:51:59 AM 39.0569 -75.7761 86° East 489 563 23,000  Level Washington Center
Sat 11:52:59 AM 39.0633 -75.5969 87° East 489 563 23,000  Level Washington Center
Sat 11:53:59 AM 39.0717 -75.4231 86° East 489 563 23,000 700 Level Washington Center
Sat 11:54:59 AM 39.0817 -75.2467 86° East 494 568 24,400 1,550 Climbing Washington Center
Sat 11:55:59 AM 39.0872 -75.0647 88° East 499 574 26,100 1,750 Climbing Washington Center
Sat 11:56:59 AM 39.0842 -74.8856 91° East 499 574 27,900 1,800 Climbing Washington Center
Sat 11:57:59 AM 39.0456 -74.7097 106° East 499 574 29,700 1,650 Climbing Washington Center
Sat 11:58:59 AM 38.9753 -74.5503 120° Southeast 499 574 31,200 1,269 Climbing Washington Center
Sat 12:00:35 PM 38.8572 -74.3169 123° Southeast 490 564 33,000 692 Climbing New York Center
Sat 12:01:35 PM 38.7783 -74.1692 124° Southeast 500 575 33,000  Level New York Center
Sat 12:02:34 PM 38.7033 -74.0139 122° Southeast 505 581 33,000  Level New York Center
Sat 12:03:35 PM 38.6283 -73.8589 122° Southeast 510 587 33,000  Level New York Center
Sat 12:04:35 PM 38.5531 -73.7044 122° Southeast 515 593 33,000  Level New York Center
Sat 12:05:33 PM 38.4756 -73.5553 124° Southeast 509 586 33,000  Level New York Center
Sat 12:06:34 PM 38.3956 -73.4092 125° Southeast 509 586 33,000  Level New York Center
Sat 12:07:35 PM 38.3175 -73.2581 123° Southeast 509 586 33,000  Level New York Center
Sat 12:08:36 PM 38.2433 -73.1047 122° Southeast 509 586 33,000  Level New York Center
Sat 12:09:36 PM 38.1650 -72.9542 123° Southeast 514 592 33,000  Level New York Center
Sat 12:10:34 PM 38.0883 -72.8069 123° Southeast 509 586 33,000  Level New York Center
Sat 12:11:34 PM 38.0056 -72.6517 124° Southeast 516 594 33,000  Level New York Center
Sat 12:12:33 PM 37.9050 -72.5489 141° Southeast 491 565 33,000  Level New York Center
Sat 12:13:36 PM 37.8003 -72.4467 142° Southeast 483 556 33,000  Level New York Center
Sat 12:14:36 PM 37.6911 -72.3444 143° Southeast 483 556 33,000  Level New York Center
Sat 12:15:34 PM 37.6067 -72.2508 139° Southeast 483 556 33,000  Level New York Center
Sat 12:16:34 PM 37.5036 -72.1517 143° Southeast 468 539 33,000  Level New York Center
Sat 12:17:36 PM 37.3986 -72.0478 142° Southeast 468 539 33,000  Level New York Center
Sat 12:18:33 PM 37.2933 -71.9467 143° Southeast 479 551 33,000  Level New York Center
Sat 12:19:35 PM 37.1878 -71.8408 141° Southeast 485 558 33,000  Level New York Center
Sat 12:20:21 PM 37.3000 -71.9667 141° Southeast 506 582 33,000  Level New York Oceanic (ODAPS)
Sat 12:20:36 PM 37.0908 -71.7378 141° Southeast 475 547 33,000  Level New York Center
Sat 12:21:34 PM 36.9914 -71.6378 141° Southeast 475 547 33,000  Level New York Center
Sat 12:22:34 PM 36.8900 -71.5353 141° Southeast 476 548 33,000 -244 Level New York Center
Sat 12:24:00 PM 36.7433 -71.4098 141° Southeast  Level FlightAware Approximate
Sat 12:31:00 PM 36.0630 -70.7375 141° Southeast  Level FlightAware Approximate
Sat 12:32:00 PM 35.9655 -70.6424 142° Southeast  Level FlightAware Approximate
Sat 12:33:00 PM 35.8679 -70.5475 142° Southeast  Level FlightAware Approximate
Sat 12:33:53 PM 35.7667 -70.4500 142° Southeast 480 552 30,000  Level New York Oceanic (ODAPS)
Sat 12:34:00 PM 35.7702 -70.4529 142° Southeast  Level FlightAware Approximate
Sat 12:35:00 PM 35.6721 -70.3591 142° Southeast  Level FlightAware Approximate
Sat 12:36:00 PM 35.5738 -70.2658 142° Southeast  Level FlightAware Approximate
Sat 12:37:00 PM 35.4755 -70.1726 142° Southeast  Level FlightAware Approximate
Sat 12:38:00 PM 35.3770 -70.0797 142° Southeast  Level FlightAware Approximate
Sat 12:39:00 PM 35.2785 -69.9870 142° Southeast  Level FlightAware Approximate
Sat 12:40:00 PM 35.0228 -69.7495 143° Southeast 480 552 30,000  Level FlightAware Transoceanic
Sat 12:41:00 PM 34.9161 -69.6505 143° Southeast 480 552 30,000  Level FlightAware Transoceanic
Sat 12:42:00 PM 34.8095 -69.5517 143° Southeast 480 552 30,000  Level FlightAware Transoceanic
Sat 12:43:00 PM 34.7027 -69.4532 143° Southeast 480 552 30,000  Level FlightAware Transoceanic
Sat 12:44:00 PM 34.5959 -69.3549 143° Southeast 480 552 30,000  Level FlightAware Transoceanic
Sat 12:45:00 PM 34.4890 -69.2569 143° Southeast 480 552 30,000  Level FlightAware Transoceanic
Sat 12:46:00 PM 34.3820 -69.1592 143° Southeast 480 552 30,000  Level FlightAware Transoceanic
Sat 12:47:00 PM 34.2749 -69.0617 143° Southeast 480 552 30,000  Level FlightAware Transoceanic
Sat 12:48:00 PM 34.1677 -68.9644 143° Southeast 480 552 30,000  Level FlightAware Transoceanic
Sat 12:49:00 PM 34.0605 -68.8674 143° Southeast 480 552 30,000  Level FlightAware Transoceanic
Sat 12:50:00 PM 33.9532 -68.7706 143° Southeast 480 552 30,000  Level FlightAware Transoceanic
Sat 12:51:00 PM 33.8458 -68.6741 143° Southeast 480 552 30,000  Level FlightAware Transoceanic
Sat 12:52:00 PM 33.7384 -68.5778 143° Southeast 480 552 30,000  Level FlightAware Transoceanic
Sat 12:53:00 PM 33.6309 -68.4818 143° Southeast 480 552 30,000  Level FlightAware Transoceanic
Sat 12:54:00 PM 33.5233 -68.3860 143° Southeast 480 552 30,000  Level FlightAware Transoceanic
Sat 12:55:00 PM 33.4156 -68.2904 144° Southeast 480 552 30,000  Level FlightAware Transoceanic
Sat 12:56:00 PM 33.3078 -68.1951 144° Southeast 480 552 30,000  Level FlightAware Transoceanic
Sat 12:56:58 PM 33.2000 -68.1000 105° East 469 540 30,000  Level New York Oceanic (ODAPS)
Sat 12:57:00 PM 33.2000 -68.1000 105° East 480 552 30,000  Level FlightAware Transoceanic
Sat 12:58:00 PM 33.1624 -67.9359 105° East 480 552 30,000  Level FlightAware Transoceanic
Sat 12:59:00 PM 33.1247 -67.7719 105° East 480 552 30,000  Level FlightAware Transoceanic
Sat 01:00:00 PM 33.0867 -67.6080 106° East 480 552 30,000  Level FlightAware Transoceanic
Sat 01:01:00 PM 33.0485 -67.4443 106° East 480 552 30,000  Level FlightAware Transoceanic
Sat 01:02:00 PM 33.0100 -67.2807 106° East 480 552 30,000  Level FlightAware Transoceanic
Sat 01:03:00 PM 32.9207 -66.9044 106° East 469 540 30,000  Level FlightAware Transoceanic
Sat 01:04:00 PM 32.8850 -66.7554 106° East 469 540 30,000  Level FlightAware Transoceanic
Sat 01:05:00 PM 32.8491 -66.6066 106° East 469 540 30,000  Level FlightAware Transoceanic
Sat 01:06:00 PM 32.8130 -66.4580 106° East 469 540 30,000  Level FlightAware Transoceanic
Sat 01:07:00 PM 32.7768 -66.3094 106° East 469 540 30,000  Level FlightAware Transoceanic
Sat 01:08:00 PM 32.7404 -66.1610 106° East 469 540 30,000  Level FlightAware Transoceanic
Sat 01:09:00 PM 32.7038 -66.0126 106° East 469 540 30,000  Level FlightAware Transoceanic
Sat 01:10:00 PM 32.6670 -65.8644 106° East 469 540 30,000  Level FlightAware Transoceanic
Sat 01:11:00 PM 32.6301 -65.7164 107° East 469 540 30,000  Level FlightAware Transoceanic
Sat 01:12:00 PM 32.5930 -65.5684 107° East 469 540 30,000  Level FlightAware Transoceanic
Sat 01:13:00 PM 32.5557 -65.4206 107° East 469 540 30,000  Level FlightAware Transoceanic
Sat 01:14:00 PM 32.5182 -65.2729 107° East 469 540 30,000  Level FlightAware Transoceanic
Sat 01:15:00 PM 32.4806 -65.1253 107° East 468 539 30,000  Level FlightAware Transoceanic
Sat 01:16:00 PM 32.4428 -64.9779 107° East 468 539 30,000  Level FlightAware Transoceanic
Sat 01:17:00 PM 32.4048 -64.8305 107° East 468 539 30,000 -4,779 Level FlightAware Transoceanic
Sat 01:18:00 PM 32.3952 -64.8259 103° East  Level FlightAware Approximate
Sat 01:19:00 PM 32.3573 -64.7015 115° Southeast  Level FlightAware Approximate
Sat 01:20:00 PM 32.3640 -64.6787 90° East  Level Estimated
Sat 01:21:00 PM 32.3640 -64.6787 90° East  Level Estimated
Sat 01:21:39 PM 33.2000 -68.1000 103° East 468 539 3,000  Level New York Oceanic (ODAPS)
Sat 01:22:00 PM 32.3640 -64.6787 90° East  Level Estimated
Sat 01:23:00 PM 32.3640 -64.6787 90° East  Level Estimated
Sat 01:24:00 PM 33.0203 -67.3494 105° East  Level FlightAware Approximate
Sat 01:24:56 PM 32.4333 -64.4500 187° South 199 229  Level New York Oceanic (ODAPS)
Sat 01:25:00 PM 32.9899 -67.2205 106° East  Level FlightAware Approximate
Sat 01:26:00 PM 32.9593 -67.0917 106° East  Level FlightAware Approximate
Sat 01:27:00 PM 32.9299 -66.9626 101° East  Level FlightAware Approximate
Sat 01:28:00 PM 33.0047 -67.2827 106° East  Level FlightAware Approximate
Sat 01:29:00 PM 32.9741 -67.1539 106° East  Level FlightAware Approximate
Sat 01:30:00 PM 32.9434 -67.0252 106° East  Level FlightAware Approximate
Sat 01:31:00 PM 32.3640 -64.6787 250° West  Level Estimated
Sat 01:32:00 PM 32.3640 -64.6787 308° West  Level Estimated
Sat 01:33:00 PM 32.3640 -64.6787 308° West  Level Estimated
Sat 01:34:00 PM 32.3640 -64.6787 308° West  Level Estimated
Sat 01:35:00 PM 32.3640 -64.6787 308° West  Level Estimated
Sat 01:36:00 PM 32.3640 -64.6787 308° West  Level Estimated
Sat 01:37:00 PM 32.3640 -64.6787 308° West  Level Estimated

Login

Don't have an account? Register now (free) for customized features, flight alerts, and more!